EW7168 Weather Reports


Display with metric or nautical units.
time (UTC)temp
F
wind
direction
speed
MPH
gust
MPH
rain 1hr
in
rain 24hr
in
rain mn
in
humidity
%
barometer
mb
20190420185506 75 202 2.0 3.0 0.00 0.00 0.00 14 1013.7
20190420185006 75 247 2.0 4.0 0.00 0.00 0.00 14 1013.9
20190420184506 76 213 6.0 9.0 0.00 0.00 0.00 14 1013.9
20190420184007 76 211 4.0 7.0 0.00 0.00 0.00 15 1013.9
20190420183507 75 69 1.0 4.0 0.00 0.00 0.00 15 1014.1
20190420183008 75 154 3.0 5.0 0.00 0.00 0.00 15 1014.3
20190420182507 75 213 3.0 6.0 0.00 0.00 0.00 15 1014.4
20190420182007 75 186 5.0 8.0 0.00 0.00 0.00 16 1014.4
20190420181506 75 158 3.0 5.0 0.00 0.00 0.00 15 1014.5
20190420181007 75 202 5.0 8.0 0.00 0.00 0.00 15 1014.4
20190420180506 75 164 1.0 4.0 0.00 0.00 0.00 15 1014.5
20190420180008 74 106 3.0 5.0 0.00 0.00 0.00 15 1014.8
20190420175506 74 131 2.0 4.0 0.00 0.00 0.00 15 1014.9
20190420175007 74 177 3.0 6.0 0.00 0.00 0.00 16 1015.2
20190420174506 75 165 3.0 4.0 0.00 0.00 0.00 17 1015.2
20190420174007 74 112 0.0 1.0 0.00 0.00 0.00 17 1015.4
20190420173506 73 81 0.0 1.0 0.00 0.00 0.00 18 1015.6
20190420173006 72 202 0.0 2.0 0.00 0.00 0.00 19 1015.7
20190420172507 72 231 2.0 3.0 0.00 0.00 0.00 19 1015.7
20190420172007 72 196 3.0 4.0 0.00 0.00 0.00 19 1015.7
20190420171506 71 228 1.0 3.0 0.00 0.00 0.00 19 1015.7
20190420171006 71 215 2.0 3.0 0.00 0.00 0.00 19 1015.8
20190420170506 71 125 2.0 3.0 0.00 0.00 0.00 19 1016.1
20190420170007 71 202 2.0 4.0 0.00 0.00 0.00 19 1016.1
20190420165506 71 104 1.0 3.0 0.00 0.00 0.00 19 1016.3
20190420165007 70 112 2.0 3.0 0.00 0.00 0.00 19 1016.4
20190420164506 69 67 2.0 4.0 0.00 0.00 0.00 20 1016.4
20190420164007 69 202 2.0 4.0 0.00 0.00 0.00 20 1016.5
20190420163506 68 191 2.0 5.0 0.00 0.00 0.00 20 1016.5
20190420163007 68 205 2.0 4.0 0.00 0.00 0.00 20 1016.5
20190420162506 68 165 2.0 4.0 0.00 0.00 0.00 22 1016.5
20190420162006 68 202 2.0 4.0 0.00 0.00 0.00 22 1016.5
20190420161507 67 168 1.0 2.0 0.00 0.00 0.00 22 1016.5
20190420161006 67 135 2.0 5.0 0.00 0.00 0.00 22 1016.7
20190420160507 66 148 3.0 5.0 0.00 0.00 0.00 23 1016.6
20190420160007 66 201 4.0 6.0 0.00 0.00 0.00 23 1016.6
20190420155506 66 213 2.0 4.0 0.00 0.00 0.00 24 1016.6
20190420155007 65 160 3.0 4.0 0.00 0.00 0.00 25 1016.6
20190420154506 64 129 2.0 3.0 0.00 0.00 0.00 25 1016.9
20190420154007 64 202 3.0 4.0 0.00 0.00 0.00 26 1016.9
20190420153506 64 236 2.0 4.0 0.00 0.00 0.00 27 1016.9
20190420153009 63 135 3.0 4.0 0.00 0.00 0.00 27 1016.9
20190420152507 63 200 3.0 4.0 0.00 0.00 0.00 27 1017.2
20190420152007 63 218 2.0 4.0 0.00 0.00 0.00 28 1017.3
20190420151506 63 222 2.0 3.0 0.00 0.00 0.00 29 1017.1
20190420151007 62 187 2.0 3.0 0.00 0.00 0.00 28 1017.2
20190420150506 62 202 2.0 4.0 0.00 0.00 0.00 28 1017.4
20190420150007 61 170 0.0 2.0 0.00 0.00 0.00 27 1017.4
20190420145506 61 157 2.0 3.0 0.00 0.00 0.00 27 1017.6
20190420145006 60 172 1.0 3.0 0.00 0.00 0.00 28 1017.4
20190420144506 60 229 2.0 4.0 0.00 0.00 0.00 30 1017.5
20190420144007 59 224 2.0 4.0 0.00 0.00 0.00 30 1017.6
20190420143506 58 195 2.0 4.0 0.00 0.00 0.00 31 1017.5
20190420143007 58 191 3.0 5.0 0.00 0.00 0.00 31 1017.7
20190420142507 58 187 4.0 6.0 0.00 0.00 0.00 31 1017.6
20190420142006 57 208 3.0 5.0 0.00 0.00 0.00 32 1017.6
20190420141506 56 196 4.0 6.0 0.00 0.00 0.00 34 1017.6
20190420141007 55 204 4.0 6.0 0.00 0.00 0.00 37 1017.7
20190420140506 54 209 3.0 4.0 0.00 0.00 0.00 39 1017.6
20190420140008 53 135 0.0 1.0 0.00 0.00 0.00 39 1017.6
20190420135505 53 202 2.0 3.0 0.00 0.00 0.00 38 1017.4
20190420135007 53 202 1.0 3.0 0.00 0.00 0.00 37 1017.6
20190420134506 52 247 2.0 3.0 0.00 0.00 0.00 35 1017.3
20190420134007 53 202 2.0 3.0 0.00 0.00 0.00 36 1017.3
20190420133507 53 202 2.0 3.0 0.00 0.00 0.00 36 1017.3
20190420133008 53 205 3.0 5.0 0.00 0.00 0.00 38 1017.3
20190420132506 52 202 2.0 3.0 0.00 0.00 0.00 39 1017.3
20190420132006 51 202 1.0 2.0 0.00 0.00 0.00 39 1017.3
20190420131505 49 247 1.0 2.0 0.00 0.00 0.00 38 1017.3
20190420131007 49 247 1.0 2.0 0.00 0.00 0.00 39 1016.9
20190420130506 48 234 2.0 3.0 0.00 0.00 0.00 39 1016.9
20190420130008 47 292 2.0 3.0 0.00 0.00 0.00 39 1016.9
20190420125506 47 247 2.0 3.0 0.00 0.00 0.00 41 1016.9
20190420125007 47 208 3.0 4.0 0.00 0.00 0.00 43 1016.7
20190420124506 47 202 1.0 2.0 0.00 0.00 0.00 43 1016.5
20190420124006 47 202 3.0 4.0 0.00 0.00 0.00 43 1016.8
20190420123506 47 247 2.0 2.0 0.00 0.00 0.00 43 1016.8
20190420123007 47 247 1.0 2.0 0.00 0.00 0.00 43 1016.7
20190420122507 47 247 2.0 3.0 0.00 0.00 0.00 42 1016.5
20190420122006 48 247 2.0 3.0 0.00 0.00 0.00 41 1016.6
20190420121506 48 247 3.0 3.0 0.00 0.00 0.00 40 1016.6
20190420121008 48 202 3.0 4.0 0.00 0.00 0.00 41 1016.5
20190420120506 47 202 0.0 1.0 0.00 0.00 0.00 41 1016.6
20190420120008 48 202 0.0 0.0 0.00 0.00 0.00 41 1016.5
20190420115505 48 202 0.0 1.0 0.00 0.00 0.00 40 1016.5
20190420115006 48 247 1.0 2.0 0.00 0.00 0.00 40 1016.5
20190420114506 48 292 2.0 2.0 0.00 0.00 0.00 40 1016.5
20190420113506 49 202 1.0 2.0 0.00 0.00 0.00 39 1016.5
20190420113007 49 208 2.0 3.0 0.00 0.00 0.00 39 1016.5
20190420112506 49 247 1.0 1.0 0.00 0.00 0.00 39 1016.5
20190420112007 49 202 2.0 4.0 0.00 0.00 0.00 39 1016.5
20190420111506 49 247 0.0 1.0 0.00 0.00 0.00 39 1016.5
20190420111006 49 202 2.0 3.0 0.00 0.00 0.00 39 1016.5
20190420110506 49 242 2.0 3.0 0.00 0.00 0.00 40 1016.5
20190420110008 49 247 2.0 2.0 0.00 0.00 0.00 40 1016.5
20190420105506 49 253 2.0 3.0 0.00 0.00 0.00 41 1016.5
20190420105007 49 247 1.0 2.0 0.00 0.00 0.00 43 1016.5
20190420104506 48 292 1.0 2.0 0.00 0.00 0.00 44 1016.5
20190420104006 47 202 1.0 2.0 0.00 0.00 0.00 45 1016.5
20190420103506 47 247 0.0 0.0 0.00 0.00 0.00 44 1016.5
20190420103007 48 247 1.0 2.0 0.00 0.00 0.00 43 1016.5
20190420102506 48 247 1.0 2.0 0.00 0.00 0.00 43 1016.5
20190420102006 48 202 0.0 1.0 0.00 0.00 0.00 43 1016.5
20190420101506 48 202 0.0 0.0 0.00 0.00 0.00 42 1016.5
20190420101007 49 202 0.0 1.0 0.00 0.00 0.00 40 1016.6
20190420100507 49 247 1.0 2.0 0.00 0.00 0.00 39 1016.9
20190420100007 50 264 1.0 2.0 0.00 0.00 0.00 39 1016.8
20190420095506 49 292 0.0 1.0 0.00 0.00 0.00 38 1017.0
20190420095007 50 251 0.0 1.0 0.00 0.00 0.00 39 1016.9
20190420094506 50 274 1.0 3.0 0.00 0.00 0.00 39 1016.7
20190420094007 50 205 0.0 1.0 0.00 0.00 0.00 39 1016.8
20190420093507 50 206 1.0 2.0 0.00 0.00 0.00 40 1016.9
20190420093007 49 202 2.0 4.0 0.00 0.00 0.00 39 1016.9
20190420092506 50 217 1.0 2.0 0.00 0.00 0.00 41 1016.9
20190420092007 50 206 2.0 4.0 0.00 0.00 0.00 41 1016.9
20190420091506 50 202 0.0 0.0 0.00 0.00 0.00 41 1016.9
20190420091007 50 202 1.0 3.0 0.00 0.00 0.00 41 1016.9
20190420090507 49 202 0.0 2.0 0.00 0.00 0.00 40 1016.9
20190420090007 50 202 2.0 3.0 0.00 0.00 0.00 41 1017.0
20190420085506 51 259 1.0 2.0 0.00 0.00 0.00 41 1016.9
20190420085007 51 202 3.0 5.0 0.00 0.00 0.00 41 1017.3
20190420084506 51 278 3.0 4.0 0.00 0.00 0.00 41 1017.3
20190420084006 51 202 3.0 3.0 0.00 0.00 0.00 41 1017.3
20190420083506 51 289 3.0 3.0 0.00 0.00 0.00 41 1017.3
20190420083007 51 247 2.0 3.0 0.00 0.00 0.00 41 1017.2
20190420082506 50 202 2.0 3.0 0.00 0.00 0.00 41 1017.3
20190420082007 51 206 2.0 4.0 0.00 0.00 0.00 42 1017.6
20190420081506 50 225 3.0 4.0 0.00 0.00 0.00 42 1017.7
20190420081006 50 247 2.0 3.0 0.00 0.00 0.00 42 1017.7
20190420080506 51 247 0.0 0.0 0.00 0.00 0.00 41 1017.7
20190420080007 51 247 1.0 2.0 0.00 0.00 0.00 40 1017.7
20190420075506 52 212 0.0 0.0 0.00 0.00 0.00 39 1017.8
20190420075007 52 247 1.0 2.0 0.00 0.00 0.00 39 1018.1
20190420074506 53 227 3.0 4.0 0.00 0.00 0.00 39 1018.0
20190420074006 52 202 4.0 5.0 0.00 0.00 0.00 40 1018.0
20190420073506 51 204 3.0 4.0 0.00 0.00 0.00 41 1018.1
20190420073006 51 202 2.0 3.0 0.00 0.00 0.00 42 1018.2
20190420072506 51 228 0.0 1.0 0.00 0.00 0.00 42 1018.2
20190420072006 52 270 0.0 0.0 0.00 0.00 0.00 42 1018.2
20190420071506 52 270 1.0 2.0 0.00 0.00 0.00 41 1018.5
20190420071006 52 247 1.0 2.0 0.00 0.00 0.00 40 1018.5
20190420070507 53 247 1.0 2.0 0.00 0.00 0.00 41 1018.5
20190420070008 53 220 2.0 4.0 0.00 0.00 0.00 40 1018.5
20190420065007 53 247 1.0 1.0 0.00 0.00 0.00 40 1018.7
20190420064505 54 228 2.0 2.0 0.00 0.00 0.00 40 1018.6
20190420064007 54 202 1.0 2.0 0.00 0.00 0.00 40 1018.7
20190420063506 54 202 1.0 2.0 0.00 0.00 0.00 40 1018.9
20190420063008 54 214 3.0 4.0 0.00 0.00 0.00 41 1018.9
20190420062506 54 220 4.0 5.0 0.00 0.00 0.00 41 1019.0
20190420062007 54 225 3.0 5.0 0.00 0.00 0.00 42 1018.9
20190420061506 54 213 2.0 4.0 0.00 0.00 0.00 42 1018.9
20190420061007 54 236 2.0 3.0 0.00 0.00 0.00 42 1019.3
20190420060506 54 228 3.0 5.0 0.00 0.00 0.00 43 1019.0
20190420055506 53 225 2.0 3.0 0.00 0.00 0.00 43 1019.2
20190420055007 54 202 2.0 3.0 0.00 0.00 0.00 44 1019.3
20190420054506 54 217 2.0 3.0 0.00 0.00 0.00 44 1019.3
20190420054006 54 202 1.0 2.0 0.00 0.00 0.00 43 1019.2
20190420053506 55 247 1.0 2.0 0.00 0.00 0.00 43 1019.2
20190420053007 55 247 0.0 1.0 0.00 0.00 0.00 42 1019.3
20190420052507 55 239 2.0 3.0 0.00 0.00 0.00 42 1019.3
20190420052007 55 239 2.0 3.0 0.00 0.00 0.00 42 1019.3
20190420051506 56 246 2.0 4.0 0.00 0.00 0.00 42 1019.3
20190420051007 56 217 4.0 6.0 0.00 0.00 0.00 42 1019.3
20190420050506 56 210 3.0 4.0 0.00 0.00 0.00 42 1019.3
20190420050012 56 216 4.0 6.0 0.00 0.00 0.00 42 1019.3
20190420045506 56 212 4.0 6.0 0.00 0.00 0.00 43 1019.5
20190420045007 55 202 1.0 3.0 0.00 0.00 0.00 43 1019.5
20190420044507 56 247 1.0 2.0 0.00 0.00 0.00 43 1019.7
20190420044006 54 247 2.0 3.0 0.00 0.00 0.00 42 1019.7
20190420043506 55 209 1.0 4.0 0.00 0.00 0.00 42 1019.7
20190420043007 56 247 0.0 0.0 0.00 0.00 0.00 42 1019.7
20190420042506 56 247 0.0 1.0 0.00 0.00 0.00 42 1019.7
20190420042007 56 232 2.0 3.0 0.00 0.00 0.00 42 1019.7
20190420041506 57 202 2.0 3.0 0.00 0.00 0.00 42 1019.7
20190420041007 57 219 2.0 4.0 0.00 0.00 0.00 41 1019.7
20190420040509 57 202 2.0 4.0 0.00 0.00 0.00 41 1019.7
20190420040007 57 233 2.0 4.0 0.00 0.00 0.00 40 1019.9
20190420035506 58 202 0.0 0.0 0.00 0.00 0.00 40 1019.8
20190420035007 58 247 0.0 1.0 0.00 0.00 0.00 39 1019.7
20190420034506 58 247 0.0 1.0 0.00 0.00 0.00 39 1020.1
20190420034007 59 247 0.0 1.0 0.00 0.00 0.00 38 1020.0
20190420033008 59 247 1.0 1.0 0.00 0.00 0.00 36 1019.9
20190420032507 60 247 1.0 2.0 0.00 0.00 0.00 35 1020.0
20190420032006 61 247 1.0 2.0 0.00 0.00 0.00 35 1020.1
20190420031506 61 247 0.0 1.0 0.00 0.00 0.00 34 1019.9
20190420031006 62 247 1.0 2.0 0.00 0.00 0.00 33 1019.8
20190420030507 61 247 0.0 0.0 0.00 0.00 0.00 32 1020.0
20190420030008 63 157 0.0 0.0 0.00 0.00 0.00 33 1019.8
20190420025507 63 112 0.0 0.0 0.00 0.00 0.00 32 1019.8
20190420025006 63 112 0.0 0.0 0.00 0.00 0.00 31 1019.7
20190420024506 64 112 0.0 0.0 0.00 0.00 0.00 31 1019.7
20190420024007 64 112 0.0 1.0 0.00 0.00 0.00 31 1019.7
20190420023506 64 112 0.0 0.0 0.00 0.00 0.00 31 1019.7
20190420023007 64 112 0.0 1.0 0.00 0.00 0.00 30 1019.5
20190420022506 65 112 0.0 0.0 0.00 0.00 0.00 29 1019.6
20190420022006 65 112 0.0 1.0 0.00 0.00 0.00 29 1019.6
20190420021506 65 112 1.0 2.0 0.00 0.00 0.00 28 1019.7
20190420021007 66 112 0.0 1.0 0.00 0.00 0.00 28 1019.3
20190420020506 66 112 0.0 2.0 0.00 0.00 0.00 28 1019.3
20190420020007 66 112 0.0 0.0 0.00 0.00 0.00 27 1019.3
20190420015507 67 112 0.0 0.0 0.00 0.00 0.00 27 1019.4
20190420015006 66 112 0.0 1.0 0.00 0.00 0.00 25 1019.3
20190420014506 68 112 1.0 3.0 0.00 0.00 0.00 26 1019.3
20190420014007 68 112 2.0 4.0 0.00 0.00 0.00 26 1019.3
20190420013506 68 112 2.0 3.0 0.00 0.00 0.00 24 1019.3
20190420013008 68 112 3.0 4.0 0.00 0.00 0.00 24 1019.3
20190420012506 69 110 3.0 5.0 0.00 0.00 0.00 25 1019.2
20190420012007 69 105 3.0 5.0 0.00 0.00 0.00 25 1019.3
20190420011507 69 122 3.0 6.0 0.00 0.00 0.00 24 1019.3
20190420011007 70 75 5.0 9.0 0.00 0.00 0.00 24 1019.2
20190420010507 70 106 3.0 5.0 0.00 0.00 0.00 24 1019.2
20190420010008 70 106 4.0 6.0 0.00 0.00 0.00 24 1019.2
20190420005506 70 135 4.0 6.0 0.00 0.00 0.00 23 1019.2
20190420005007 71 123 3.0 7.0 0.00 0.00 0.00 23 1019.2
20190420004505 71 130 3.0 5.0 0.00 0.00 0.00 23 1019.0
20190420004007 71 112 3.0 4.0 0.00 0.00 0.00 23 1019.3
20190420003507 71 102 4.0 7.0 0.00 0.00 0.00 23 1019.1
20190420003008 71 141 3.0 6.0 0.00 0.00 0.00 23 1019.2
20190420002506 71 84 5.0 8.0 0.00 0.00 0.00 22 1019.3
20190420002007 71 135 3.0 4.0 0.00 0.00 0.00 21 1019.0
20190420001506 72 154 2.0 4.0 0.00 0.00 0.00 22 1019.3
20190420001008 72 112 3.0 5.0 0.00 0.00 0.00 22 1019.2
20190420000507 72 83 3.0 6.0 0.00 0.00 0.00 22 1019.3
20190420000007 71 22 5.0 7.0 0.00 0.00 0.00 20 1019.1
20190419235506 72 65 4.0 6.0 0.00 0.00 0.00 21 1019.2
20190419235007 73 97 2.0 5.0 0.00 0.00 0.00 21 1019.3
20190419234506 72 100 3.0 5.0 0.00 0.00 0.00 21 1019.3
20190419233506 72 112 5.0 8.0 0.00 0.00 0.00 22 1019.0
20190419233008 72 100 3.0 5.0 0.00 0.00 0.00 22 1019.3
20190419232506 72 101 3.0 4.0 0.00 0.00 0.00 22 1019.2
20190419232008 72 118 5.0 8.0 0.00 0.00 0.00 22 1019.3
20190419231506 72 72 4.0 8.0 0.00 0.00 0.00 22 1019.2
20190419231006 72 136 3.0 5.0 0.00 0.00 0.00 22 1019.3
20190419230506 72 157 3.0 4.0 0.00 0.00 0.00 22 1019.4
20190419230007 72 133 3.0 5.0 0.00 0.00 0.00 21 1019.3
20190419225506 72 65 6.0 10.0 0.00 0.00 0.00 21 1019.3
20190419225007 72 112 1.0 3.0 0.00 0.00 0.00 21 1019.5
20190419224506 72 108 3.0 5.0 0.00 0.00 0.00 22 1019.3
20190419224007 72 157 2.0 4.0 0.00 0.00 0.00 22 1019.5
20190419223506 72 91 6.0 9.0 0.00 0.00 0.00 22 1019.7
20190419223007 72 90 3.0 6.0 0.00 0.00 0.00 22 1019.5
20190419222506 72 68 4.0 8.0 0.00 0.00 0.00 22 1019.7
20190419222006 72 44 4.0 7.0 0.00 0.00 0.00 22 1019.7
20190419221506 71 51 3.0 5.0 0.00 0.00 0.00 22 1019.7
20190419221006 72 113 5.0 7.0 0.00 0.00 0.00 22 1019.8
20190419220506 72 116 4.0 6.0 0.00 0.00 0.00 22 1019.7
20190419220007 72 77 4.0 7.0 0.00 0.00 0.00 22 1019.9
20190419215506 72 97 4.0 7.0 0.00 0.00 0.00 22 1020.1
20190419215007 71 47 3.0 5.0 0.00 0.00 0.00 22 1020.1
20190419214507 71 111 5.0 8.0 0.00 0.00 0.00 22 1020.1
20190419214008 70 198 4.0 6.0 0.00 0.00 0.00 22 1020.2
20190419213506 70 106 5.0 8.0 0.00 0.00 0.00 23 1020.5
20190419213008 70 50 5.0 8.0 0.00 0.00 0.00 23 1020.5
20190419212507 70 64 6.0 10.0 0.00 0.00 0.00 23 1020.5
20190419212007 71 89 6.0 9.0 0.00 0.00 0.00 22 1020.6
20190419211506 71 99 7.0 11.0 0.00 0.00 0.00 23 1020.6
20190419211007 70 28 5.0 8.0 0.00 0.00 0.00 23 1020.9
20190419210506 70 37 4.0 6.0 0.00 0.00 0.00 23 1020.9
20190419210007 70 161 4.0 6.0 0.00 0.00 0.00 23 1020.9
20190419205506 70 72 6.0 10.0 0.00 0.00 0.00 23 1020.9
20190419204507 70 53 5.0 7.0 0.00 0.00 0.00 23 1021.2
20190419204007 70 208 3.0 5.0 0.00 0.00 0.00 23 1021.3
20190419203507 70 98 5.0 8.0 0.00 0.00 0.00 23 1021.3
20190419203008 69 59 5.0 8.0 0.00 0.00 0.00 23 1021.3
20190419202507 69 67 4.0 7.0 0.00 0.00 0.00 24 1021.3
20190419202006 69 119 4.0 8.0 0.00 0.00 0.00 23 1021.4
20190419201506 69 92 5.0 8.0 0.00 0.00 0.00 23 1021.5
20190419201006 69 119 5.0 8.0 0.00 0.00 0.00 23 1021.5
20190419200507 69 72 6.0 10.0 0.00 0.00 0.00 23 1021.6
20190419200008 69 92 2.0 3.0 0.00 0.00 0.00 24 1021.7
20190419195506 68 67 3.0 6.0 0.00 0.00 0.00 24 1021.7
20190419195006 68 124 4.0 7.0 0.00 0.00 0.00 24 1021.7
20190419194506 68 110 4.0 7.0 0.00 0.00 0.00 24 1021.7
20190419194007 68 72 6.0 9.0 0.00 0.00 0.00 24 1021.7
20190419193506 68 84 6.0 10.0 0.00 0.00 0.00 24 1021.8
20190419193007 68 47 7.0 9.0 0.00 0.00 0.00 24 1021.9
20190419192506 68 87 5.0 8.0 0.00 0.00 0.00 24 1022.0
20190419192006 68 113 2.0 6.0 0.00 0.00 0.00 24 1022.1
20190419191506 67 107 3.0 6.0 0.00 0.00 0.00 24 1022.1
20190419191007 67 95 4.0 7.0 0.00 0.00 0.00 24 1022.2
20190419190507 68 98 4.0 6.0 0.00 0.00 0.00 24 1022.2
20190419190007 68 89 4.0 7.0 0.00 0.00 0.00 24 1022.1